首页
METAR-TAF:

METAR-TAF

机场 :

仁川國際機場

仁川国际机场, 大韩民国

纬度: 37-28N, 经度: 126-27E, 海拔: 7米

当前天气观测

该预报发布于26分钟前的03:30 UTC
风速7节,风向
温度 23°C
湿度 47%
气压 1007 hPa
能见度10公里或以上
少量云层高于3000英尺

METAR: RKSI 280330Z 36007KT 9999 FEW030 23/11 Q1007 NOSIG

时间: 12:56 (03:56 UTC)

预报

该预报发布于4小时和56分钟前的23:00 UTC
预报有效从28日的 00点(UTC)到 29日的 06点(UTC)
风速10节,风向
能见度10公里或以上
1500米以下无云,无积雨云
成为
从 28日的 06点(UTC)到 28日的 08点(UTC)
风速6节,风向西转西北
成为
从 29日的 04点(UTC)到 29日的 06点(UTC)
风速6节,风向西南

TAF: RKSI 272300Z 2800/2906 36010KT CAVOK TX24/2806Z TN15/2820Z TX23/2906Z BECMG 2806/2808 29006KT BECMG 2904/2906 23006KT

超过4000个机场的气象观测和天气预报(METAR&TAF报告)。

可查询的气象台以黄色和红色小点在地图上表示。

将鼠标移到小点上方,可查看气象台名称。

然后点击查看天气观测和预报。

如需切换地图:点击带黑十字的绿色按钮放大地图;点击带横线的绿色按钮缩小地图;或者点击绿色箭头查看邻近地区的地图。


METAR-TAF: